Airfield :
LOGIN :

Register | Disclaimer

   EN    FR    IT 

 










Legend :    VFR   Marginal VFR   IFR   Intensive IFR   Very Intensive IFR
Visi :
Ceiling :
>= 8 km
>= 3000ft
5 to 8 km
1000 to 3000 ft
1500m to 5 km
500 to 1000 ft
800 to 1500m
200 to 500 ft
< 800m
< 200 ft
Symbols :   Thunderstorms  Fog  Heavy snow  Heavy precipitations  Wind > 20 kt
SIGMETs :     Misc.  Thunderstorms  Icing  Turbulence  Mountain Waves  Volcanic Ashes






- Airport Elevation : 138 ft
- IATA code : RLG


ETNL - Rostock Laage

CURRENT METAR :
  • 231520Z 27008KT 9999 FEW025 SCT065 19/14 Q1014 BLU+BLU+

EXPIRED METARs :
  • 231420Z 28008KT 9999 FEW022 SCT065 19/14 Q1014 BLU+BLU+
  • 231320Z 29008KT 9999 SCT023 BKN035 19/14 Q1013 BLU BLU BECMG BLU+
  • 231220Z 27009KT 9999 SCT020 BKN055 18/14 Q1013 BLU BLU BECMG BLU+
  • 231120Z 27010KT 9999 FEW010 SCT018 BKN034 17/14 Q1013 BLU BLU BECMG BLU+

TAF TAF ETNL
Valid from the 23 at 11:00 until the 23 at 23:00 UTC


231021Z 2311/2323 27008KT 9000 -RA BKN008 BKN020 BKN060
BECMG 2311/2313 29010KT 9999 NSW FEW040
TEMPO 2313/2316 29010G20KT 9999 NSW BKN030



MET'MAP, your aeronautical weather chart ! - Copyright ORBIFLY December 2007 - Disclaimer

ORBIFLY MET'MAP TEAM :

Programming & Development : Alexandra Zaïnal
Original concept : Baudouin d'Aumeries
Technical & hardware support : Manuel Goepfert
Assistance : Marc-Olivier Méhu




SOURCES & CREDITS :

   NOAA